Página principal
METAR-TAF:

METAR-TAF

Aeroportos :

Chita, Rússia

latitude: 52-05N, longitude: 113-29E, altura: 685 m

Observação actual do tempo

O boletim foi feito há 43 minutos, às 07:30 UTC
Vento 17 kt de oeste com rajadas de 27 kt
Temperatura 16°C
Humidade 63%
Pressão 998 hPa
Visibilidade 10 km ou mais
Nuvens dispersasa uma altura de 3300 ft, Cumulonimbus.

METAR: UIAA 210730Z 27009G14MPS 9999 SCT033CB 16/09 Q0998 R29/190160 NOSIG RMK QFE690/0921

Hora: 17:13 (08:13 UTC)

Previsão

O boletim foi feito há 3 horas e 13 minutos, às 05:00 UTC
Previsão válida de 21 às 06 UTC a 22 às 06 UTC
Vento 19 kt de oeste com rajadas de 31 kt
Visibilidade: 5000 m
Poucas nuvensa uma altura de 600 ft
Nuvens fragmentadasa uma altura de 2000 ft, Cumulonimbus.
aguaceiros fracos de chuva

TAF: UIAA 210500Z 2106/2206 28010G16MPS 5000 -SHRA FEW006 BKN020CB

Observações e previsões do tempo de mais de 4000 aeroportos (mensagens METAR e TAF).

As estações disponíveis são os pontos amarelos e vermelhos sobre o mapa.

Mova o rato sobre o mapa para ver o nome da estação.

Depois clique no ponto para visualizar as observações e previsões meteorológicas.

Para alterar o mapa : clique nos botões verdes com uma cruz preta para aumentar o zoom; no botão verde com uma pitada de zoom; ou nas setas verdes para mapas adjacentes.


METAR-TAF: